createdAt,value
2024-01-29T00:00:06.279Z,23.07
2024-01-29T00:02:37.006Z,20.10
2024-01-29T00:05:04.804Z,20.83
2024-01-29T00:07:32.227Z,23.80
2024-01-29T00:09:59.658Z,23.70
2024-01-29T00:12:27.380Z,24.47
2024-01-29T00:14:54.958Z,21.87
2024-01-29T00:17:22.402Z,28.43
2024-01-29T00:19:50.228Z,25.53
2024-01-29T00:22:17.807Z,24.67
2024-01-29T00:24:45.305Z,21.50
2024-01-29T00:27:13.009Z,18.27
2024-01-29T00:29:40.376Z,20.93
2024-01-29T00:32:07.967Z,22.13
2024-01-29T00:34:35.660Z,19.47
2024-01-29T00:37:04.658Z,21.87
2024-01-29T00:39:32.187Z,22.50
2024-01-29T00:41:59.873Z,26.57
2024-01-29T00:44:27.345Z,20.80
2024-01-29T00:46:54.749Z,26.03
2024-01-29T00:49:22.600Z,20.63
2024-01-29T00:51:50.111Z,17.23
2024-01-29T00:54:19.439Z,21.33
2024-01-29T00:56:47.080Z,17.63
2024-01-29T00:59:14.753Z,20.17
2024-01-29T01:01:42.191Z,19.60
2024-01-29T01:04:10.034Z,17.13
2024-01-29T01:06:37.627Z,16.97
2024-01-29T01:09:05.100Z,18.10
2024-01-29T01:11:32.733Z,15.97
2024-01-29T01:14:00.136Z,18.03
2024-01-29T01:16:27.521Z,16.87
2024-01-29T01:18:56.025Z,15.07
2024-01-29T01:21:23.963Z,16.33
2024-01-29T01:23:51.363Z,17.33
2024-01-29T01:26:18.981Z,14.73
2024-01-29T01:28:46.476Z,16.40
2024-01-29T01:31:13.871Z,15.10
2024-01-29T01:33:41.693Z,15.40
2024-01-29T01:36:09.167Z,16.97
2024-01-29T01:38:36.526Z,13.13
2024-01-29T01:41:04.577Z,13.00
2024-01-29T01:43:31.927Z,15.77
2024-01-29T01:46:05.251Z,18.27
2024-01-29T01:48:36.148Z,15.07
2024-01-29T01:51:04.481Z,14.67
2024-01-29T01:53:36.264Z,17.37
2024-01-29T01:56:03.981Z,13.63
2024-01-29T01:58:33.354Z,17.20
2024-01-29T02:01:00.956Z,15.30
2024-01-29T02:03:28.760Z,18.53
2024-01-29T02:05:56.366Z,14.13
2024-01-29T02:08:24.768Z,13.67
2024-01-29T02:10:52.497Z,11.73
2024-01-29T02:13:19.900Z,19.33
2024-01-29T02:15:47.328Z,17.07
2024-01-29T02:18:15.017Z,14.40
2024-01-29T02:20:42.638Z,17.13
2024-01-29T02:23:09.992Z,16.50
2024-01-29T02:25:37.731Z,16.80
2024-01-29T02:28:05.379Z,14.30
2024-01-29T02:30:32.862Z,14.70
2024-01-29T02:33:00.570Z,17.50
2024-01-29T02:35:28.046Z,15.43
2024-01-29T02:37:55.393Z,22.97
2024-01-29T02:40:23.409Z,17.87
2024-01-29T02:42:50.923Z,18.93
2024-01-29T02:45:18.280Z,16.37
2024-01-29T02:47:46.056Z,18.00
2024-01-29T02:50:13.492Z,18.83
2024-01-29T02:52:40.884Z,15.13
2024-01-29T02:55:08.671Z,15.67
2024-01-29T02:57:36.104Z,15.43
2024-01-29T03:00:05.802Z,13.93
2024-01-29T03:02:33.552Z,15.03
2024-01-29T03:05:01.244Z,16.93
2024-01-29T03:07:28.678Z,13.40
2024-01-29T03:09:56.391Z,13.33
2024-01-29T03:12:23.780Z,13.37
2024-01-29T03:14:51.583Z,14.87
2024-01-29T03:17:19.260Z,12.47
2024-01-29T03:19:46.767Z,14.73
2024-01-29T03:22:14.309Z,15.47
2024-01-29T03:24:42.041Z,12.67
2024-01-29T03:27:09.468Z,14.43
2024-01-29T03:29:36.810Z,13.63
2024-01-29T03:32:05.081Z,16.30
2024-01-29T03:34:32.611Z,18.33
2024-01-29T03:37:00.280Z,14.13
2024-01-29T03:39:28.092Z,13.50
2024-01-29T03:41:56.139Z,15.60
2024-01-29T03:44:23.571Z,16.00
2024-01-29T03:46:51.170Z,15.37
2024-01-29T03:49:18.706Z,15.27
2024-01-29T03:51:46.274Z,18.40
2024-01-29T03:54:13.925Z,19.03
2024-01-29T03:56:41.336Z,17.87
2024-01-29T03:59:12.523Z,17.30
2024-01-29T04:01:40.527Z,20.53
2024-01-29T04:04:11.720Z,18.67
2024-01-29T04:06:40.632Z,14.03
2024-01-29T04:09:11.476Z,16.53
2024-01-29T04:11:38.854Z,12.20
2024-01-29T04:14:06.286Z,13.93
2024-01-29T04:16:33.951Z,17.07
2024-01-29T04:19:01.405Z,18.40
2024-01-29T04:21:28.899Z,14.50
2024-01-29T04:23:56.662Z,18.27
2024-01-29T04:26:24.761Z,16.83
2024-01-29T04:28:52.165Z,15.77
2024-01-29T04:31:19.879Z,18.93
2024-01-29T04:33:47.420Z,12.93
2024-01-29T04:36:17.615Z,15.87
2024-01-29T04:38:45.366Z,17.27
2024-01-29T04:41:19.826Z,17.77
2024-01-29T04:43:47.730Z,19.90
2024-01-29T04:46:15.373Z,18.90
2024-01-29T04:48:42.919Z,17.33
2024-01-29T04:51:10.701Z,17.87
2024-01-29T04:53:39.548Z,18.50
2024-01-29T04:56:07.288Z,15.47
2024-01-29T04:58:34.903Z,16.23
2024-01-29T05:01:02.805Z,17.73
2024-01-29T05:03:30.362Z,20.90
2024-01-29T05:05:58.096Z,13.83
2024-01-29T05:08:25.729Z,14.67
2024-01-29T05:10:53.103Z,15.87
2024-01-29T05:13:20.739Z,15.33
2024-01-29T05:15:48.212Z,14.40
2024-01-29T05:18:15.618Z,11.87
2024-01-29T05:20:43.240Z,16.80
2024-01-29T05:23:10.686Z,16.73
2024-01-29T05:25:38.245Z,13.60
2024-01-29T05:28:06.170Z,11.30
2024-01-29T05:30:33.895Z,13.70
2024-01-29T05:33:01.411Z,9.53
2024-01-29T05:35:49.054Z,14.17
2024-01-29T05:38:16.485Z,12.57
2024-01-29T05:40:43.865Z,11.87
2024-01-29T05:43:11.619Z,15.77
2024-01-29T05:45:39.163Z,15.80
2024-01-29T05:48:08.972Z,16.63
2024-01-29T05:50:36.755Z,22.67
2024-01-29T05:53:04.487Z,20.37
2024-01-29T05:55:31.848Z,23.53
2024-01-29T05:57:59.538Z,18.23
2024-01-29T06:00:27.005Z,16.27
2024-01-29T06:02:54.857Z,20.97
2024-01-29T06:05:22.402Z,23.10
2024-01-29T06:07:50.019Z,18.83
2024-01-29T06:10:17.764Z,19.73
2024-01-29T06:12:45.253Z,21.60
2024-01-29T06:15:12.716Z,26.33
2024-01-29T06:17:41.575Z,19.03
2024-01-29T06:20:17.226Z,24.17
2024-01-29T06:22:47.146Z,20.83
2024-01-29T06:25:14.715Z,23.40
2024-01-29T06:27:42.693Z,20.87
2024-01-29T06:30:10.942Z,22.67
2024-01-29T06:32:38.424Z,25.13
2024-01-29T06:35:06.040Z,22.83
2024-01-29T06:37:34.623Z,24.40
2024-01-29T06:40:02.355Z,23.87
2024-01-29T06:42:29.828Z,23.57
2024-01-29T06:44:57.520Z,35.93
2024-01-29T06:47:25.061Z,33.03
2024-01-29T06:49:52.638Z,26.77
2024-01-29T06:52:20.504Z,52.47
2024-01-29T06:54:47.989Z,55.77
2024-01-29T06:57:15.521Z,40.43
2024-01-29T06:59:43.268Z,25.90
2024-01-29T07:02:10.863Z,27.10
2024-01-29T07:04:38.393Z,43.03
2024-01-29T07:07:06.484Z,33.13
2024-01-29T07:09:33.977Z,21.00
2024-01-29T07:12:01.499Z,26.17
2024-01-29T07:14:29.193Z,33.20
2024-01-29T07:16:56.648Z,34.63
2024-01-29T07:19:28.599Z,37.23
2024-01-29T07:21:58.530Z,34.23
2024-01-29T07:24:26.060Z,39.10
2024-01-29T07:26:53.437Z,34.83
2024-01-29T07:29:21.469Z,33.83
2024-01-29T07:31:48.907Z,30.87
2024-01-29T07:34:16.470Z,33.00
2024-01-29T07:36:44.248Z,33.93
2024-01-29T07:39:14.188Z,32.40
2024-01-29T07:41:41.797Z,31.60
2024-01-29T07:44:09.548Z,34.43
2024-01-29T07:46:36.960Z,31.63
2024-01-29T07:49:05.049Z,29.17
2024-01-29T07:51:32.860Z,38.87
2024-01-29T07:54:00.498Z,32.70
2024-01-29T07:56:28.008Z,28.23
2024-01-29T07:58:55.745Z,30.40
2024-01-29T08:01:23.436Z,30.70
2024-01-29T08:03:51.338Z,26.97
2024-01-29T08:06:19.021Z,26.87
2024-01-29T08:08:47.498Z,25.63
2024-01-29T08:11:15.159Z,27.80
2024-01-29T08:13:42.526Z,31.17
2024-01-29T08:16:10.103Z,27.53
2024-01-29T08:18:38.287Z,24.90
2024-01-29T08:21:06.289Z,37.97
2024-01-29T08:23:33.705Z,52.97
2024-01-29T08:26:01.545Z,48.73
2024-01-29T08:28:28.908Z,45.30
2024-01-29T08:31:00.186Z,42.00
2024-01-29T08:33:30.921Z,35.80
2024-01-29T08:35:58.577Z,35.83
2024-01-29T08:38:26.149Z,31.87
2024-01-29T08:40:55.921Z,33.67
2024-01-29T08:43:23.643Z,35.87
2024-01-29T08:45:51.433Z,33.27
2024-01-29T08:48:19.109Z,33.77
2024-01-29T08:50:46.617Z,38.30
2024-01-29T08:53:16.473Z,35.63
2024-01-29T08:55:46.781Z,37.80
2024-01-29T08:58:15.924Z,38.80
2024-01-29T09:00:43.476Z,34.40
2024-01-29T09:03:11.574Z,39.60
2024-01-29T09:05:43.402Z,28.07
2024-01-29T09:08:16.384Z,21.83
2024-01-29T09:10:48.651Z,25.33
2024-01-29T09:13:23.027Z,14.73
2024-01-29T09:15:50.473Z,17.33
2024-01-29T09:18:18.185Z,10.13
2024-01-29T09:20:45.753Z,16.53
2024-01-29T09:23:13.168Z,14.27
2024-01-29T09:25:40.818Z,15.30
2024-01-29T09:28:08.570Z,11.02
2024-01-29T09:30:36.024Z,13.82
2024-01-29T09:33:14.774Z,11.00
2024-01-29T09:35:45.822Z,13.60
2024-01-29T09:38:14.884Z,11.60
2024-01-29T09:40:45.694Z,14.85
2024-01-29T09:43:14.245Z,13.27
2024-01-29T09:45:41.794Z,11.23
2024-01-29T09:48:10.879Z,14.50
2024-01-29T09:50:38.874Z,14.52
2024-01-29T09:53:06.591Z,12.65
2024-01-29T09:55:34.055Z,16.42
2024-01-29T09:58:01.855Z,15.38
2024-01-29T10:00:31.970Z,13.02
2024-01-29T10:03:02.881Z,11.63
2024-01-29T10:05:31.728Z,10.60
2024-01-29T10:08:02.308Z,11.02
2024-01-29T10:10:30.429Z,13.73
2024-01-29T10:13:07.961Z,11.12
2024-01-29T10:15:36.019Z,11.27
2024-01-29T10:18:03.673Z,17.23
2024-01-29T10:20:31.665Z,14.40
2024-01-29T10:23:00.276Z,13.75
2024-01-29T10:25:29.157Z,14.93
2024-01-29T10:28:15.242Z,14.35
2024-01-29T10:33:10.668Z,11.90
2024-01-29T10:35:38.934Z,16.40
2024-01-29T10:38:07.450Z,12.45
2024-01-29T10:40:35.610Z,12.95
2024-01-29T10:43:03.401Z,14.57
2024-01-29T10:45:31.136Z,12.23
2024-01-29T10:48:04.689Z,18.52
2024-01-29T10:50:32.386Z,15.10
2024-01-29T10:53:01.166Z,15.45
2024-01-29T10:55:31.781Z,17.48
2024-01-29T10:58:02.558Z,20.23
2024-01-29T11:00:30.117Z,18.15
2024-01-29T11:02:57.729Z,19.40
2024-01-29T11:05:25.764Z,18.37
2024-01-29T11:07:54.408Z,18.40
2024-01-29T11:10:22.751Z,18.98
2024-01-29T11:12:54.387Z,17.77
2024-01-29T11:15:21.839Z,15.80
2024-01-29T11:17:49.353Z,18.52
2024-01-29T11:20:17.568Z,14.80
2024-01-29T11:22:58.267Z,14.32
2024-01-29T11:25:26.629Z,15.48
2024-01-29T11:27:54.095Z,14.15
2024-01-29T11:30:26.373Z,14.32
2024-01-29T11:32:55.732Z,12.90
2024-01-29T11:35:28.706Z,11.27
2024-01-29T11:38:10.157Z,15.02
2024-01-29T11:40:47.213Z,12.52
2024-01-29T11:43:16.214Z,15.68
2024-01-29T11:45:54.241Z,16.05
2024-01-29T11:48:23.218Z,14.43
2024-01-29T11:50:54.835Z,16.80
2024-01-29T11:53:27.188Z,17.90
2024-01-29T11:55:55.085Z,14.50
2024-01-29T11:58:23.416Z,16.85
2024-01-29T12:00:51.585Z,16.58
2024-01-29T12:03:22.098Z,17.70
2024-01-29T12:05:50.515Z,20.48
2024-01-29T12:08:19.829Z,18.65
2024-01-29T12:10:48.118Z,17.85
2024-01-29T12:13:21.996Z,16.85
2024-01-29T12:15:50.972Z,19.40
2024-01-29T12:18:25.565Z,15.30
2024-01-29T12:20:53.338Z,17.48
2024-01-29T12:23:22.967Z,18.27
2024-01-29T12:25:55.551Z,19.52
2024-01-29T12:28:25.084Z,19.50
2024-01-29T12:30:55.279Z,20.02
2024-01-29T12:33:33.735Z,14.77
2024-01-29T12:36:12.723Z,19.27
2024-01-29T12:38:44.443Z,15.77
2024-01-29T12:41:11.872Z,16.00
2024-01-29T12:43:39.834Z,19.30
2024-01-29T12:46:16.004Z,15.52
2024-01-29T12:48:44.473Z,14.48
2024-01-29T12:51:12.913Z,14.05
2024-01-29T12:53:42.190Z,14.52
2024-01-29T12:56:09.891Z,16.62
2024-01-29T12:58:38.242Z,14.77
2024-01-29T13:01:06.354Z,15.52
2024-01-29T13:03:34.658Z,16.40
2024-01-29T13:06:03.770Z,19.05
2024-01-29T13:08:31.600Z,13.85
2024-01-29T13:11:00.528Z,16.58
2024-01-29T13:13:28.432Z,17.08
2024-01-29T13:15:56.272Z,16.25
2024-01-29T13:18:26.528Z,18.25
2024-01-29T13:20:54.060Z,17.23
2024-01-29T13:23:21.440Z,19.05
2024-01-29T13:25:49.556Z,12.27
2024-01-29T13:28:17.071Z,14.07
2024-01-29T13:30:44.812Z,20.12
2024-01-29T13:33:12.677Z,15.10
2024-01-29T13:35:40.352Z,15.30
2024-01-29T13:38:08.236Z,18.37
2024-01-29T13:40:35.914Z,16.67
2024-01-29T13:43:04.056Z,16.83
2024-01-29T13:45:31.908Z,13.23
2024-01-29T13:47:59.746Z,15.65
2024-01-29T13:50:27.361Z,12.90
2024-01-29T13:52:54.740Z,14.38
2024-01-29T13:55:22.428Z,13.07
2024-01-29T13:57:49.900Z,19.10
2024-01-29T14:00:17.551Z,15.13
2024-01-29T14:02:45.206Z,17.25
2024-01-29T14:05:12.604Z,18.92
2024-01-29T14:07:39.977Z,15.05
2024-01-29T14:10:08.037Z,13.20
2024-01-29T14:12:35.471Z,14.68
2024-01-29T14:15:04.996Z,16.42
2024-01-29T14:17:33.515Z,18.15
2024-01-29T14:20:01.716Z,12.82
2024-01-29T14:22:30.158Z,15.73
2024-01-29T14:24:58.733Z,15.40
2024-01-29T14:27:26.232Z,16.75
2024-01-29T14:29:56.042Z,17.35
2024-01-29T14:32:25.078Z,17.30
2024-01-29T14:34:52.592Z,17.17
2024-01-29T14:37:20.259Z,16.58
2024-01-29T14:39:48.476Z,13.75
2024-01-29T14:42:16.264Z,20.27
2024-01-29T14:44:43.684Z,21.77
2024-01-29T14:47:12.454Z,19.27
2024-01-29T14:49:41.523Z,14.13
2024-01-29T14:52:08.929Z,15.80
2024-01-29T14:54:36.678Z,15.98
2024-01-29T14:57:04.260Z,17.05
2024-01-29T14:59:31.647Z,18.77
2024-01-29T15:01:59.877Z,17.65
2024-01-29T15:04:27.484Z,20.62
2024-01-29T15:06:55.055Z,21.00
2024-01-29T15:09:22.761Z,18.37
2024-01-29T15:11:50.135Z,15.27
2024-01-29T15:14:17.551Z,17.45
2024-01-29T15:16:50.823Z,29.48
2024-01-29T15:19:18.305Z,18.17
2024-01-29T15:21:46.185Z,15.98
2024-01-29T15:24:13.708Z,18.48
2024-01-29T15:26:41.345Z,16.30
2024-01-29T15:29:09.060Z,17.08
2024-01-29T15:31:36.502Z,21.37
2024-01-29T15:34:04.015Z,14.70
2024-01-29T15:36:31.728Z,18.23
2024-01-29T15:39:00.703Z,14.63
2024-01-29T15:41:30.636Z,14.25
2024-01-29T15:43:58.393Z,14.18
2024-01-29T15:46:26.243Z,13.27
2024-01-29T15:48:54.738Z,18.02
2024-01-29T15:51:25.392Z,17.87
2024-01-29T15:53:55.772Z,18.92
2024-01-29T15:56:23.683Z,18.08
2024-01-29T15:58:52.015Z,25.90
2024-01-29T16:01:19.670Z,21.05
2024-01-29T16:03:47.497Z,20.23
2024-01-29T16:06:15.064Z,22.60
2024-01-29T16:08:44.591Z,23.85
2024-01-29T16:11:12.301Z,27.52
2024-01-29T16:13:39.642Z,24.08
2024-01-29T16:16:10.246Z,21.15
2024-01-29T16:18:39.531Z,35.80
2024-01-29T16:21:07.416Z,24.05
2024-01-29T16:23:34.804Z,24.67
2024-01-29T16:26:02.463Z,23.47
2024-01-29T16:28:30.028Z,27.23
2024-01-29T16:30:57.745Z,31.47
2024-01-29T16:33:25.806Z,23.47
2024-01-29T16:35:53.587Z,28.55
2024-01-29T16:38:20.945Z,35.43
2024-01-29T16:40:48.617Z,32.47
2024-01-29T16:43:16.000Z,27.50
2024-01-29T16:45:43.501Z,28.13
2024-01-29T16:48:11.261Z,28.33
2024-01-29T16:50:38.659Z,24.17
2024-01-29T16:53:07.043Z,24.77
2024-01-29T16:55:34.830Z,21.27
2024-01-29T16:58:02.364Z,21.92
2024-01-29T17:00:30.041Z,23.98
2024-01-29T17:02:57.698Z,26.42
2024-01-29T17:05:27.145Z,28.90
2024-01-29T17:07:54.723Z,29.70
2024-01-29T17:10:22.565Z,27.40
2024-01-29T17:12:50.073Z,28.03
2024-01-29T17:15:17.499Z,25.93
2024-01-29T17:17:45.185Z,23.08
2024-01-29T17:20:12.848Z,26.10
2024-01-29T17:22:40.252Z,23.85
2024-01-29T17:25:08.069Z,25.27
2024-01-29T17:27:35.888Z,23.00
2024-01-29T17:30:03.451Z,25.90
2024-01-29T17:32:31.655Z,26.57
2024-01-29T17:34:59.314Z,27.60
2024-01-29T17:37:30.194Z,26.43
2024-01-29T17:39:57.887Z,28.90
2024-01-29T17:42:25.739Z,28.87
2024-01-29T17:44:54.298Z,24.27
2024-01-29T17:47:21.950Z,26.47
2024-01-29T17:49:49.395Z,24.67
2024-01-29T17:52:16.864Z,21.93
2024-01-29T17:54:44.609Z,25.40
2024-01-29T17:57:12.201Z,30.23
2024-01-29T17:59:39.684Z,25.00
2024-01-29T18:02:07.517Z,21.97
2024-01-29T18:04:35.251Z,22.67
2024-01-29T18:07:02.855Z,27.23
2024-01-29T18:09:30.407Z,33.57
2024-01-29T18:11:59.431Z,26.73
2024-01-29T18:14:27.082Z,22.30
2024-01-29T18:16:54.518Z,22.67
2024-01-29T18:19:22.261Z,28.13
2024-01-29T18:21:49.757Z,26.57
2024-01-29T18:24:17.134Z,26.53
2024-01-29T18:26:44.880Z,26.80
2024-01-29T18:29:12.298Z,25.23
2024-01-29T18:31:39.709Z,32.30
2024-01-29T18:34:07.923Z,23.73
2024-01-29T18:36:35.367Z,28.77
2024-01-29T18:39:02.795Z,28.67
2024-01-29T18:41:30.573Z,28.37
2024-01-29T18:43:58.155Z,30.33
2024-01-29T18:46:25.623Z,28.67
2024-01-29T18:48:53.399Z,38.50
2024-01-29T18:51:27.016Z,38.57
2024-01-29T18:53:55.195Z,32.10
2024-01-29T18:56:23.241Z,31.40
2024-01-29T18:58:51.152Z,33.73
2024-01-29T19:01:21.403Z,33.07
2024-01-29T19:03:49.096Z,38.80
2024-01-29T19:06:16.839Z,41.67
2024-01-29T19:08:44.561Z,41.47
2024-01-29T19:11:11.944Z,44.97
2024-01-29T19:13:39.315Z,47.93
2024-01-29T19:16:07.221Z,50.93
2024-01-29T19:18:35.277Z,51.03
2024-01-29T19:21:02.674Z,49.07
2024-01-29T19:23:30.645Z,48.97
2024-01-29T19:25:58.011Z,47.47
2024-01-29T19:28:29.049Z,42.90
2024-01-29T19:30:56.930Z,52.90
2024-01-29T19:33:24.422Z,44.67
2024-01-29T19:35:53.950Z,53.07
2024-01-29T19:38:23.355Z,52.10
2024-01-29T19:40:51.036Z,47.30
2024-01-29T19:43:18.628Z,40.30
2024-01-29T19:45:48.483Z,41.87
2024-01-29T19:48:15.977Z,44.60
2024-01-29T19:50:43.387Z,44.80
2024-01-29T19:53:11.035Z,38.20
2024-01-29T19:55:38.408Z,42.90
2024-01-29T19:58:05.828Z,33.17
2024-01-29T20:00:33.570Z,38.73
2024-01-29T20:03:03.289Z,36.63
2024-01-29T20:05:30.745Z,38.10
2024-01-29T20:07:58.148Z,37.23
2024-01-29T20:10:25.889Z,33.40
2024-01-29T20:12:53.382Z,39.10
2024-01-29T20:15:21.035Z,39.50
2024-01-29T20:17:48.733Z,38.63
2024-01-29T20:20:16.391Z,34.53
2024-01-29T20:22:43.840Z,34.30
2024-01-29T20:25:11.619Z,36.60
2024-01-29T20:27:40.260Z,40.13
2024-01-29T20:30:08.753Z,32.73
2024-01-29T20:32:38.543Z,32.77
2024-01-29T20:35:11.681Z,33.60
2024-01-29T20:37:40.192Z,34.57
2024-01-29T20:40:08.371Z,34.77
2024-01-29T20:42:35.980Z,35.37
2024-01-29T20:45:03.901Z,34.93
2024-01-29T20:47:31.410Z,39.43
2024-01-29T20:49:59.101Z,33.30
2024-01-29T20:52:26.872Z,35.07
2024-01-29T20:54:57.879Z,33.17
2024-01-29T20:57:31.536Z,34.93
2024-01-29T20:59:58.979Z,31.67
2024-01-29T21:02:27.175Z,51.90
2024-01-29T21:04:54.997Z,56.20
2024-01-29T21:07:22.469Z,47.33
2024-01-29T21:09:49.927Z,54.07
2024-01-29T21:12:17.637Z,42.87
2024-01-29T21:14:45.041Z,40.20
2024-01-29T21:17:12.437Z,40.70
2024-01-29T21:19:40.914Z,46.67
2024-01-29T21:22:09.382Z,44.37
2024-01-29T21:24:37.130Z,50.90
2024-01-29T21:27:04.967Z,48.73
2024-01-29T21:29:32.409Z,50.63
2024-01-29T21:31:59.795Z,44.80
2024-01-29T21:34:27.530Z,47.17
2024-01-29T21:36:56.864Z,47.77
2024-01-29T21:39:24.369Z,44.67
2024-01-29T21:41:52.449Z,47.50
2024-01-29T21:44:19.856Z,46.40
2024-01-29T21:46:47.298Z,46.47
2024-01-29T21:49:15.715Z,44.27
2024-01-29T21:51:46.135Z,40.97
2024-01-29T21:54:13.502Z,43.80
2024-01-29T21:56:41.166Z,41.13
2024-01-29T21:59:09.499Z,43.33
2024-01-29T22:01:40.485Z,45.33
2024-01-29T22:04:08.461Z,47.23
2024-01-29T22:06:36.261Z,59.63
2024-01-29T22:09:03.846Z,52.70
2024-01-29T22:11:31.559Z,46.70
2024-01-29T22:13:58.952Z,50.90
2024-01-29T22:16:44.905Z,42.92
2024-01-29T22:19:12.666Z,48.73
2024-01-29T22:21:40.087Z,43.47
2024-01-29T22:24:07.586Z,43.33
2024-01-29T22:26:35.264Z,41.80
2024-01-29T22:29:04.290Z,39.00
2024-01-29T22:31:33.230Z,41.03
2024-01-29T22:34:00.962Z,40.47
2024-01-29T22:36:29.209Z,32.93
2024-01-29T22:38:56.670Z,39.50
2024-01-29T22:41:24.336Z,43.40
2024-01-29T22:43:51.885Z,40.93
2024-01-29T22:46:20.028Z,34.67
2024-01-29T22:48:47.885Z,37.03
2024-01-29T22:51:15.360Z,35.57
2024-01-29T22:53:42.878Z,37.03
2024-01-29T22:56:10.519Z,34.60
2024-01-29T22:58:37.925Z,39.67
2024-01-29T23:01:07.158Z,33.23
2024-01-29T23:03:34.875Z,37.80
2024-01-29T23:06:02.368Z,35.73
2024-01-29T23:08:29.799Z,33.53
2024-01-29T23:10:57.564Z,41.67
2024-01-29T23:13:25.106Z,37.23
2024-01-29T23:15:52.539Z,41.43
2024-01-29T23:18:21.062Z,36.60
2024-01-29T23:20:48.526Z,37.53
2024-01-29T23:23:15.993Z,34.23
2024-01-29T23:25:43.760Z,30.40
2024-01-29T23:28:11.199Z,31.93
2024-01-29T23:30:38.646Z,34.43
2024-01-29T23:33:06.463Z,33.00
2024-01-29T23:35:33.950Z,28.90
2024-01-29T23:38:01.357Z,31.10
2024-01-29T23:40:29.094Z,36.00
2024-01-29T23:42:56.588Z,29.33
2024-01-29T23:45:25.739Z,28.50
2024-01-29T23:47:53.519Z,27.63
2024-01-29T23:50:20.910Z,33.80
2024-01-29T23:52:48.298Z,32.37
2024-01-29T23:55:15.998Z,30.70
2024-01-29T23:57:43.497Z,32.70
